sensor_id;sensor_type;location;lat;lon;timestamp;P1;durP1;ratioP1;P2;durP2;ratioP2
55827;SDS011;41758;51.992;5.890;2023-05-16T00:01:52;8.13;;;3.22;;
55827;SDS011;41758;51.992;5.890;2023-05-16T00:04:18;10.23;;;3.33;;
55827;SDS011;41758;51.992;5.890;2023-05-16T00:06:44;9.68;;;3.22;;
55827;SDS011;41758;51.992;5.890;2023-05-16T00:09:10;11.55;;;3.30;;
55827;SDS011;41758;51.992;5.890;2023-05-16T00:11:35;11.95;;;3.30;;
55827;SDS011;41758;51.992;5.890;2023-05-16T00:14:01;9.25;;;3.05;;
55827;SDS011;41758;51.992;5.890;2023-05-16T00:16:27;10.43;;;2.88;;
55827;SDS011;41758;51.992;5.890;2023-05-16T00:18:54;11.25;;;3.40;;
55827;SDS011;41758;51.992;5.890;2023-05-16T00:21:22;9.88;;;3.08;;
55827;SDS011;41758;51.992;5.890;2023-05-16T00:23:49;12.65;;;3.13;;
55827;SDS011;41758;51.992;5.890;2023-05-16T00:26:15;12.18;;;3.22;;
55827;SDS011;41758;51.992;5.890;2023-05-16T00:28:42;6.82;;;2.42;;
55827;SDS011;41758;51.992;5.890;2023-05-16T00:31:08;7.00;;;2.38;;
55827;SDS011;41758;51.992;5.890;2023-05-16T00:33:33;7.55;;;2.60;;
55827;SDS011;41758;51.992;5.890;2023-05-16T00:35:59;7.75;;;2.67;;
55827;SDS011;41758;51.992;5.890;2023-05-16T00:38:25;8.40;;;2.55;;
55827;SDS011;41758;51.992;5.890;2023-05-16T00:40:51;5.85;;;2.20;;
55827;SDS011;41758;51.992;5.890;2023-05-16T00:43:17;9.60;;;2.90;;
55827;SDS011;41758;51.992;5.890;2023-05-16T00:45:43;7.03;;;2.33;;
55827;SDS011;41758;51.992;5.890;2023-05-16T00:48:09;9.35;;;3.03;;
55827;SDS011;41758;51.992;5.890;2023-05-16T00:50:37;9.20;;;2.97;;
55827;SDS011;41758;51.992;5.890;2023-05-16T00:53:04;8.95;;;2.70;;
55827;SDS011;41758;51.992;5.890;2023-05-16T00:55:30;8.48;;;2.65;;
55827;SDS011;41758;51.992;5.890;2023-05-16T00:57:56;10.95;;;2.78;;
55827;SDS011;41758;51.992;5.890;2023-05-16T01:00:23;9.98;;;2.55;;
55827;SDS011;41758;51.992;5.890;2023-05-16T01:02:51;8.02;;;2.60;;
55827;SDS011;41758;51.992;5.890;2023-05-16T01:05:17;10.05;;;2.78;;
55827;SDS011;41758;51.992;5.890;2023-05-16T01:07:44;7.78;;;3.05;;
55827;SDS011;41758;51.992;5.890;2023-05-16T01:10:10;12.68;;;2.88;;
55827;SDS011;41758;51.992;5.890;2023-05-16T01:12:38;12.20;;;2.70;;
55827;SDS011;41758;51.992;5.890;2023-05-16T01:15:08;9.00;;;2.58;;
55827;SDS011;41758;51.992;5.890;2023-05-16T01:17:54;9.48;;;2.90;;
55827;SDS011;41758;51.992;5.890;2023-05-16T01:23:48;10.88;;;2.88;;
55827;SDS011;41758;51.992;5.890;2023-05-16T01:28:46;9.00;;;2.58;;
55827;SDS011;41758;51.992;5.890;2023-05-16T01:31:13;9.32;;;2.97;;
55827;SDS011;41758;51.992;5.890;2023-05-16T01:33:40;7.93;;;2.20;;
55827;SDS011;41758;51.992;5.890;2023-05-16T01:38:40;7.05;;;2.20;;
55827;SDS011;41758;51.992;5.890;2023-05-16T01:41:26;8.75;;;2.60;;
55827;SDS011;41758;51.992;5.890;2023-05-16T01:44:00;9.15;;;2.65;;
55827;SDS011;41758;51.992;5.890;2023-05-16T01:46:30;7.35;;;2.50;;
55827;SDS011;41758;51.992;5.890;2023-05-16T01:52:23;6.90;;;2.42;;
55827;SDS011;41758;51.992;5.890;2023-05-16T01:54:53;10.75;;;2.13;;
55827;SDS011;41758;51.992;5.890;2023-05-16T01:57:23;8.25;;;1.95;;
55827;SDS011;41758;51.992;5.890;2023-05-16T01:59:50;7.72;;;2.50;;
55827;SDS011;41758;51.992;5.890;2023-05-16T02:02:19;8.00;;;2.30;;
55827;SDS011;41758;51.992;5.890;2023-05-16T02:04:45;5.80;;;1.80;;
55827;SDS011;41758;51.992;5.890;2023-05-16T02:07:13;9.95;;;2.30;;
55827;SDS011;41758;51.992;5.890;2023-05-16T02:09:40;10.00;;;2.50;;
55827;SDS011;41758;51.992;5.890;2023-05-16T02:12:06;10.05;;;2.55;;
55827;SDS011;41758;51.992;5.890;2023-05-16T02:14:31;8.38;;;2.58;;
55827;SDS011;41758;51.992;5.890;2023-05-16T02:16:57;6.72;;;2.22;;
55827;SDS011;41758;51.992;5.890;2023-05-16T02:19:23;8.63;;;2.28;;
55827;SDS011;41758;51.992;5.890;2023-05-16T02:21:49;8.50;;;2.50;;
55827;SDS011;41758;51.992;5.890;2023-05-16T02:24:15;7.25;;;2.10;;
55827;SDS011;41758;51.992;5.890;2023-05-16T02:26:41;7.50;;;2.25;;
55827;SDS011;41758;51.992;5.890;2023-05-16T02:29:06;6.53;;;2.25;;
55827;SDS011;41758;51.992;5.890;2023-05-16T02:31:33;5.45;;;2.20;;
55827;SDS011;41758;51.992;5.890;2023-05-16T02:33:59;6.60;;;2.00;;
55827;SDS011;41758;51.992;5.890;2023-05-16T02:36:25;4.20;;;1.73;;
55827;SDS011;41758;51.992;5.890;2023-05-16T02:38:51;8.85;;;2.10;;
55827;SDS011;41758;51.992;5.890;2023-05-16T02:41:20;9.93;;;2.30;;
55827;SDS011;41758;51.992;5.890;2023-05-16T02:43:47;9.05;;;2.50;;
55827;SDS011;41758;51.992;5.890;2023-05-16T02:46:28;5.10;;;1.77;;
55827;SDS011;41758;51.992;5.890;2023-05-16T02:48:55;8.50;;;2.00;;
55827;SDS011;41758;51.992;5.890;2023-05-16T02:51:22;8.50;;;2.40;;
55827;SDS011;41758;51.992;5.890;2023-05-16T02:53:50;7.22;;;2.05;;
55827;SDS011;41758;51.992;5.890;2023-05-16T02:56:16;5.55;;;2.05;;
55827;SDS011;41758;51.992;5.890;2023-05-16T02:58:45;5.90;;;2.55;;
55827;SDS011;41758;51.992;5.890;2023-05-16T03:01:12;5.07;;;2.13;;
55827;SDS011;41758;51.992;5.890;2023-05-16T03:03:39;8.10;;;2.25;;
55827;SDS011;41758;51.992;5.890;2023-05-16T03:06:05;8.70;;;2.13;;
55827;SDS011;41758;51.992;5.890;2023-05-16T03:08:31;6.55;;;2.10;;
55827;SDS011;41758;51.992;5.890;2023-05-16T03:10:57;6.65;;;1.98;;
55827;SDS011;41758;51.992;5.890;2023-05-16T03:13:23;7.85;;;2.25;;
55827;SDS011;41758;51.992;5.890;2023-05-16T03:15:49;8.75;;;2.58;;
55827;SDS011;41758;51.992;5.890;2023-05-16T03:18:16;9.63;;;3.03;;
55827;SDS011;41758;51.992;5.890;2023-05-16T03:20:42;6.38;;;2.20;;
55827;SDS011;41758;51.992;5.890;2023-05-16T03:23:07;6.00;;;2.10;;
55827;SDS011;41758;51.992;5.890;2023-05-16T03:25:34;6.45;;;2.08;;
55827;SDS011;41758;51.992;5.890;2023-05-16T03:28:01;7.05;;;2.00;;
55827;SDS011;41758;51.992;5.890;2023-05-16T03:30:27;5.68;;;2.08;;
55827;SDS011;41758;51.992;5.890;2023-05-16T03:32:53;7.45;;;2.33;;
55827;SDS011;41758;51.992;5.890;2023-05-16T03:35:19;7.78;;;2.45;;
55827;SDS011;41758;51.992;5.890;2023-05-16T03:37:45;5.63;;;1.90;;
55827;SDS011;41758;51.992;5.890;2023-05-16T03:40:11;6.78;;;2.10;;
55827;SDS011;41758;51.992;5.890;2023-05-16T03:42:37;6.00;;;2.17;;
55827;SDS011;41758;51.992;5.890;2023-05-16T03:45:06;5.45;;;2.13;;
55827;SDS011;41758;51.992;5.890;2023-05-16T03:47:32;8.80;;;2.40;;
55827;SDS011;41758;51.992;5.890;2023-05-16T03:49:58;7.50;;;2.28;;
55827;SDS011;41758;51.992;5.890;2023-05-16T03:52:24;6.65;;;2.47;;
55827;SDS011;41758;51.992;5.890;2023-05-16T03:54:50;8.38;;;2.22;;
55827;SDS011;41758;51.992;5.890;2023-05-16T03:57:16;8.00;;;2.40;;
55827;SDS011;41758;51.992;5.890;2023-05-16T03:59:41;7.38;;;2.20;;
55827;SDS011;41758;51.992;5.890;2023-05-16T04:02:07;6.18;;;2.13;;
55827;SDS011;41758;51.992;5.890;2023-05-16T04:04:33;8.88;;;2.47;;
55827;SDS011;41758;51.992;5.890;2023-05-16T04:06:59;7.18;;;2.40;;
55827;SDS011;41758;51.992;5.890;2023-05-16T04:09:28;7.32;;;2.22;;
55827;SDS011;41758;51.992;5.890;2023-05-16T04:11:54;6.63;;;2.20;;
55827;SDS011;41758;51.992;5.890;2023-05-16T04:14:21;6.85;;;2.20;;
55827;SDS011;41758;51.992;5.890;2023-05-16T04:16:48;7.03;;;2.63;;
55827;SDS011;41758;51.992;5.890;2023-05-16T04:19:14;6.55;;;2.47;;
55827;SDS011;41758;51.992;5.890;2023-05-16T04:21:40;6.07;;;2.30;;
55827;SDS011;41758;51.992;5.890;2023-05-16T04:24:06;5.38;;;2.10;;
55827;SDS011;41758;51.992;5.890;2023-05-16T04:26:32;7.38;;;2.20;;
55827;SDS011;41758;51.992;5.890;2023-05-16T04:28:57;5.05;;;2.03;;
55827;SDS011;41758;51.992;5.890;2023-05-16T04:31:26;5.40;;;1.73;;
55827;SDS011;41758;51.992;5.890;2023-05-16T04:33:52;5.53;;;1.90;;
55827;SDS011;41758;51.992;5.890;2023-05-16T04:36:18;4.28;;;1.85;;
55827;SDS011;41758;51.992;5.890;2023-05-16T04:38:44;5.72;;;2.20;;
55827;SDS011;41758;51.992;5.890;2023-05-16T04:41:13;4.65;;;1.75;;
55827;SDS011;41758;51.992;5.890;2023-05-16T04:43:39;4.50;;;1.90;;
55827;SDS011;41758;51.992;5.890;2023-05-16T04:46:06;6.38;;;2.20;;
55827;SDS011;41758;51.992;5.890;2023-05-16T04:48:35;6.10;;;2.03;;
55827;SDS011;41758;51.992;5.890;2023-05-16T04:51:00;6.53;;;1.90;;
55827;SDS011;41758;51.992;5.890;2023-05-16T04:53:26;4.90;;;1.90;;
55827;SDS011;41758;51.992;5.890;2023-05-16T04:55:52;5.03;;;1.70;;
55827;SDS011;41758;51.992;5.890;2023-05-16T04:58:17;5.82;;;2.08;;
55827;SDS011;41758;51.992;5.890;2023-05-16T05:00:43;5.18;;;1.83;;
55827;SDS011;41758;51.992;5.890;2023-05-16T05:03:09;5.70;;;2.10;;
55827;SDS011;41758;51.992;5.890;2023-05-16T05:05:34;6.18;;;2.00;;
55827;SDS011;41758;51.992;5.890;2023-05-16T05:08:00;5.00;;;1.83;;
55827;SDS011;41758;51.992;5.890;2023-05-16T05:10:26;5.53;;;2.00;;
55827;SDS011;41758;51.992;5.890;2023-05-16T05:12:52;6.22;;;2.10;;
55827;SDS011;41758;51.992;5.890;2023-05-16T05:15:18;3.78;;;1.50;;
55827;SDS011;41758;51.992;5.890;2023-05-16T05:17:43;4.45;;;1.90;;
55827;SDS011;41758;51.992;5.890;2023-05-16T05:20:09;6.57;;;1.90;;
55827;SDS011;41758;51.992;5.890;2023-05-16T05:22:36;6.03;;;2.10;;
55827;SDS011;41758;51.992;5.890;2023-05-16T05:25:02;4.93;;;2.15;;
55827;SDS011;41758;51.992;5.890;2023-05-16T05:27:30;7.78;;;2.05;;
55827;SDS011;41758;51.992;5.890;2023-05-16T05:29:55;6.03;;;2.10;;
55827;SDS011;41758;51.992;5.890;2023-05-16T05:32:21;6.78;;;2.10;;
55827;SDS011;41758;51.992;5.890;2023-05-16T05:34:47;6.45;;;2.30;;
55827;SDS011;41758;51.992;5.890;2023-05-16T05:37:12;4.72;;;1.75;;
55827;SDS011;41758;51.992;5.890;2023-05-16T05:39:38;4.93;;;1.77;;
55827;SDS011;41758;51.992;5.890;2023-05-16T05:42:04;6.30;;;2.38;;
55827;SDS011;41758;51.992;5.890;2023-05-16T05:44:30;4.95;;;1.80;;
55827;SDS011;41758;51.992;5.890;2023-05-16T05:46:56;4.90;;;1.80;;
55827;SDS011;41758;51.992;5.890;2023-05-16T05:49:23;6.43;;;2.15;;
55827;SDS011;41758;51.992;5.890;2023-05-16T05:51:49;5.80;;;1.90;;
55827;SDS011;41758;51.992;5.890;2023-05-16T05:54:19;6.68;;;2.35;;
55827;SDS011;41758;51.992;5.890;2023-05-16T05:56:45;7.72;;;2.30;;
55827;SDS011;41758;51.992;5.890;2023-05-16T05:59:11;5.82;;;2.08;;
55827;SDS011;41758;51.992;5.890;2023-05-16T06:01:36;5.93;;;2.10;;
55827;SDS011;41758;51.992;5.890;2023-05-16T06:04:02;7.05;;;2.10;;
55827;SDS011;41758;51.992;5.890;2023-05-16T06:06:28;7.40;;;2.75;;
55827;SDS011;41758;51.992;5.890;2023-05-16T06:08:54;6.93;;;2.03;;
55827;SDS011;41758;51.992;5.890;2023-05-16T06:11:19;4.32;;;2.03;;
55827;SDS011;41758;51.992;5.890;2023-05-16T06:13:46;4.85;;;2.00;;
55827;SDS011;41758;51.992;5.890;2023-05-16T06:16:12;5.53;;;1.92;;
55827;SDS011;41758;51.992;5.890;2023-05-16T06:18:37;4.82;;;1.80;;
55827;SDS011;41758;51.992;5.890;2023-05-16T06:21:04;5.85;;;2.33;;
55827;SDS011;41758;51.992;5.890;2023-05-16T06:23:31;4.75;;;1.90;;
55827;SDS011;41758;51.992;5.890;2023-05-16T06:25:57;7.20;;;2.40;;
55827;SDS011;41758;51.992;5.890;2023-05-16T06:28:22;8.50;;;2.40;;
55827;SDS011;41758;51.992;5.890;2023-05-16T06:30:48;5.97;;;2.33;;
55827;SDS011;41758;51.992;5.890;2023-05-16T06:33:15;6.30;;;2.10;;
55827;SDS011;41758;51.992;5.890;2023-05-16T06:35:42;6.85;;;2.47;;
55827;SDS011;41758;51.992;5.890;2023-05-16T06:38:08;7.20;;;2.28;;
55827;SDS011;41758;51.992;5.890;2023-05-16T06:40:33;6.20;;;2.33;;
55827;SDS011;41758;51.992;5.890;2023-05-16T06:42:59;5.75;;;1.98;;
55827;SDS011;41758;51.992;5.890;2023-05-16T06:45:25;4.68;;;2.33;;
55827;SDS011;41758;51.992;5.890;2023-05-16T06:47:51;4.80;;;2.10;;
55827;SDS011;41758;51.992;5.890;2023-05-16T06:50:16;6.70;;;2.10;;
55827;SDS011;41758;51.992;5.890;2023-05-16T06:52:42;6.20;;;2.15;;
55827;SDS011;41758;51.992;5.890;2023-05-16T06:55:10;7.10;;;2.30;;
55827;SDS011;41758;51.992;5.890;2023-05-16T06:57:36;9.10;;;2.50;;
55827;SDS011;41758;51.992;5.890;2023-05-16T07:00:02;6.65;;;2.25;;
55827;SDS011;41758;51.992;5.890;2023-05-16T07:02:28;7.97;;;2.33;;
55827;SDS011;41758;51.992;5.890;2023-05-16T07:04:54;7.72;;;2.28;;
55827;SDS011;41758;51.992;5.890;2023-05-16T07:07:21;8.95;;;2.80;;
55827;SDS011;41758;51.992;5.890;2023-05-16T07:09:46;5.28;;;1.98;;
55827;SDS011;41758;51.992;5.890;2023-05-16T07:12:12;4.30;;;1.85;;
55827;SDS011;41758;51.992;5.890;2023-05-16T07:14:38;5.50;;;2.13;;
55827;SDS011;41758;51.992;5.890;2023-05-16T07:17:04;6.65;;;2.25;;
55827;SDS011;41758;51.992;5.890;2023-05-16T07:19:30;8.45;;;2.10;;
55827;SDS011;41758;51.992;5.890;2023-05-16T07:21:56;5.47;;;1.77;;
55827;SDS011;41758;51.992;5.890;2023-05-16T07:24:22;7.45;;;1.92;;
55827;SDS011;41758;51.992;5.890;2023-05-16T07:26:47;6.72;;;2.00;;
55827;SDS011;41758;51.992;5.890;2023-05-16T07:29:13;5.00;;;1.63;;
55827;SDS011;41758;51.992;5.890;2023-05-16T07:31:39;5.47;;;1.65;;
55827;SDS011;41758;51.992;5.890;2023-05-16T07:34:05;5.70;;;1.90;;
55827;SDS011;41758;51.992;5.890;2023-05-16T07:36:32;5.28;;;1.85;;
55827;SDS011;41758;51.992;5.890;2023-05-16T07:38:59;7.22;;;1.95;;
55827;SDS011;41758;51.992;5.890;2023-05-16T07:41:24;6.15;;;1.83;;
55827;SDS011;41758;51.992;5.890;2023-05-16T07:43:50;5.70;;;1.80;;
55827;SDS011;41758;51.992;5.890;2023-05-16T07:46:16;3.35;;;1.40;;
55827;SDS011;41758;51.992;5.890;2023-05-16T07:48:41;4.68;;;1.52;;
55827;SDS011;41758;51.992;5.890;2023-05-16T07:51:07;6.53;;;1.85;;
55827;SDS011;41758;51.992;5.890;2023-05-16T07:53:33;6.85;;;1.60;;
55827;SDS011;41758;51.992;5.890;2023-05-16T07:55:59;6.22;;;1.77;;
55827;SDS011;41758;51.992;5.890;2023-05-16T07:58:24;4.95;;;1.58;;
55827;SDS011;41758;51.992;5.890;2023-05-16T08:00:50;5.32;;;1.60;;
55827;SDS011;41758;51.992;5.890;2023-05-16T08:03:16;5.88;;;1.60;;
55827;SDS011;41758;51.992;5.890;2023-05-16T08:05:42;6.22;;;1.85;;
55827;SDS011;41758;51.992;5.890;2023-05-16T08:08:08;5.15;;;1.40;;
55827;SDS011;41758;51.992;5.890;2023-05-16T08:10:33;5.30;;;1.48;;
55827;SDS011;41758;51.992;5.890;2023-05-16T08:12:59;4.70;;;1.55;;
55827;SDS011;41758;51.992;5.890;2023-05-16T08:15:25;4.90;;;1.70;;
55827;SDS011;41758;51.992;5.890;2023-05-16T08:17:53;3.55;;;1.40;;
55827;SDS011;41758;51.992;5.890;2023-05-16T08:20:22;4.35;;;1.40;;
55827;SDS011;41758;51.992;5.890;2023-05-16T08:22:48;5.72;;;1.50;;
55827;SDS011;41758;51.992;5.890;2023-05-16T08:25:14;5.00;;;1.50;;
55827;SDS011;41758;51.992;5.890;2023-05-16T08:27:40;5.30;;;1.63;;
55827;SDS011;41758;51.992;5.890;2023-05-16T08:30:07;7.13;;;1.95;;
55827;SDS011;41758;51.992;5.890;2023-05-16T08:32:33;4.38;;;1.55;;
55827;SDS011;41758;51.992;5.890;2023-05-16T08:34:59;5.20;;;1.80;;
55827;SDS011;41758;51.992;5.890;2023-05-16T08:37:26;3.80;;;1.50;;
55827;SDS011;41758;51.992;5.890;2023-05-16T08:39:52;6.28;;;1.83;;
55827;SDS011;41758;51.992;5.890;2023-05-16T08:42:19;5.75;;;1.80;;
55827;SDS011;41758;51.992;5.890;2023-05-16T08:44:45;4.68;;;1.58;;
55827;SDS011;41758;51.992;5.890;2023-05-16T08:47:15;5.70;;;1.60;;
55827;SDS011;41758;51.992;5.890;2023-05-16T08:49:50;3.65;;;1.35;;
55827;SDS011;41758;51.992;5.890;2023-05-16T08:52:20;4.20;;;1.42;;
55827;SDS011;41758;51.992;5.890;2023-05-16T08:54:51;4.80;;;1.30;;
55827;SDS011;41758;51.992;5.890;2023-05-16T08:57:18;3.75;;;1.30;;
55827;SDS011;41758;51.992;5.890;2023-05-16T08:59:45;4.40;;;1.45;;
55827;SDS011;41758;51.992;5.890;2023-05-16T09:02:12;4.78;;;1.38;;
55827;SDS011;41758;51.992;5.890;2023-05-16T09:04:38;4.53;;;1.30;;
55827;SDS011;41758;51.992;5.890;2023-05-16T09:07:05;5.22;;;1.55;;
55827;SDS011;41758;51.992;5.890;2023-05-16T09:09:31;4.07;;;1.40;;
55827;SDS011;41758;51.992;5.890;2023-05-16T09:11:58;3.72;;;1.20;;
55827;SDS011;41758;51.992;5.890;2023-05-16T09:14:24;4.85;;;1.48;;
55827;SDS011;41758;51.992;5.890;2023-05-16T09:17:07;4.70;;;1.33;;
55827;SDS011;41758;51.992;5.890;2023-05-16T09:19:40;4.57;;;1.63;;
55827;SDS011;41758;51.992;5.890;2023-05-16T09:22:11;4.75;;;1.60;;
55827;SDS011;41758;51.992;5.890;2023-05-16T09:24:41;4.15;;;1.27;;
55827;SDS011;41758;51.992;5.890;2023-05-16T09:27:11;2.38;;;1.20;;
55827;SDS011;41758;51.992;5.890;2023-05-16T09:29:41;4.13;;;1.30;;
55827;SDS011;41758;51.992;5.890;2023-05-16T09:32:11;4.68;;;1.23;;
55827;SDS011;41758;51.992;5.890;2023-05-16T09:34:48;2.90;;;1.10;;
55827;SDS011;41758;51.992;5.890;2023-05-16T09:37:15;3.75;;;1.40;;
55827;SDS011;41758;51.992;5.890;2023-05-16T09:39:46;3.08;;;1.20;;
55827;SDS011;41758;51.992;5.890;2023-05-16T09:42:13;3.60;;;1.17;;
55827;SDS011;41758;51.992;5.890;2023-05-16T09:44:40;4.80;;;1.60;;
55827;SDS011;41758;51.992;5.890;2023-05-16T09:47:08;4.00;;;1.30;;
55827;SDS011;41758;51.992;5.890;2023-05-16T09:49:35;4.13;;;1.35;;
55827;SDS011;41758;51.992;5.890;2023-05-16T09:52:02;3.85;;;1.20;;
55827;SDS011;41758;51.992;5.890;2023-05-16T09:54:31;4.72;;;1.30;;
55827;SDS011;41758;51.992;5.890;2023-05-16T09:56:58;3.33;;;1.25;;
55827;SDS011;41758;51.992;5.890;2023-05-16T09:59:24;4.53;;;1.60;;
55827;SDS011;41758;51.992;5.890;2023-05-16T10:01:52;5.97;;;1.50;;
55827;SDS011;41758;51.992;5.890;2023-05-16T10:04:21;5.45;;;1.60;;
55827;SDS011;41758;51.992;5.890;2023-05-16T10:06:46;5.45;;;1.50;;
55827;SDS011;41758;51.992;5.890;2023-05-16T10:09:16;4.40;;;1.40;;
55827;SDS011;41758;51.992;5.890;2023-05-16T10:11:42;3.35;;;1.27;;
55827;SDS011;41758;51.992;5.890;2023-05-16T10:14:10;3.85;;;1.30;;
55827;SDS011;41758;51.992;5.890;2023-05-16T10:16:39;6.15;;;1.52;;
55827;SDS011;41758;51.992;5.890;2023-05-16T10:19:07;4.53;;;1.52;;
55827;SDS011;41758;51.992;5.890;2023-05-16T10:21:33;5.18;;;1.60;;
55827;SDS011;41758;51.992;5.890;2023-05-16T10:24:02;5.72;;;1.55;;
55827;SDS011;41758;51.992;5.890;2023-05-16T10:26:30;3.10;;;1.15;;
55827;SDS011;41758;51.992;5.890;2023-05-16T10:28:58;3.72;;;1.30;;
55827;SDS011;41758;51.992;5.890;2023-05-16T10:31:26;5.28;;;1.40;;
55827;SDS011;41758;51.992;5.890;2023-05-16T10:33:54;4.35;;;1.40;;
55827;SDS011;41758;51.992;5.890;2023-05-16T10:36:21;5.30;;;1.50;;
55827;SDS011;41758;51.992;5.890;2023-05-16T10:38:47;4.18;;;1.45;;
55827;SDS011;41758;51.992;5.890;2023-05-16T10:41:14;6.15;;;1.65;;
55827;SDS011;41758;51.992;5.890;2023-05-16T10:43:43;4.88;;;1.80;;
55827;SDS011;41758;51.992;5.890;2023-05-16T10:46:10;3.10;;;1.27;;
55827;SDS011;41758;51.992;5.890;2023-05-16T10:48:40;6.53;;;1.42;;
55827;SDS011;41758;51.992;5.890;2023-05-16T10:54:09;4.07;;;1.35;;
55827;SDS011;41758;51.992;5.890;2023-05-16T10:56:36;5.72;;;1.85;;
55827;SDS011;41758;51.992;5.890;2023-05-16T10:59:02;4.70;;;1.45;;
55827;SDS011;41758;51.992;5.890;2023-05-16T11:01:30;6.15;;;1.70;;
55827;SDS011;41758;51.992;5.890;2023-05-16T11:16:50;4.65;;;1.50;;
55827;SDS011;41758;51.992;5.890;2023-05-16T11:19:28;4.03;;;1.60;;
55827;SDS011;41758;51.992;5.890;2023-05-16T11:22:04;3.72;;;1.40;;
55827;SDS011;41758;51.992;5.890;2023-05-16T11:24:31;3.30;;;1.40;;
55827;SDS011;41758;51.992;5.890;2023-05-16T11:26:59;4.75;;;1.73;;
55827;SDS011;41758;51.992;5.890;2023-05-16T11:29:32;4.78;;;1.63;;
55827;SDS011;41758;51.992;5.890;2023-05-16T11:32:03;4.47;;;1.30;;
55827;SDS011;41758;51.992;5.890;2023-05-16T11:34:30;3.47;;;1.40;;
55827;SDS011;41758;51.992;5.890;2023-05-16T11:36:56;3.85;;;1.40;;
55827;SDS011;41758;51.992;5.890;2023-05-16T11:39:22;4.57;;;1.40;;
55827;SDS011;41758;51.992;5.890;2023-05-16T11:41:52;4.32;;;1.40;;
55827;SDS011;41758;51.992;5.890;2023-05-16T11:44:18;4.53;;;1.17;;
55827;SDS011;41758;51.992;5.890;2023-05-16T11:46:43;5.15;;;1.70;;
55827;SDS011;41758;51.992;5.890;2023-05-16T11:49:10;3.10;;;1.50;;
55827;SDS011;41758;51.992;5.890;2023-05-16T11:51:37;4.15;;;1.60;;
55827;SDS011;41758;51.992;5.890;2023-05-16T11:54:03;4.95;;;1.52;;
55827;SDS011;41758;51.992;5.890;2023-05-16T11:56:30;4.47;;;1.70;;
55827;SDS011;41758;51.992;5.890;2023-05-16T11:58:56;5.82;;;1.50;;
55827;SDS011;41758;51.992;5.890;2023-05-16T12:01:35;5.05;;;1.55;;
55827;SDS011;41758;51.992;5.890;2023-05-16T12:06:38;4.15;;;1.60;;
55827;SDS011;41758;51.992;5.890;2023-05-16T12:09:11;5.45;;;1.70;;
55827;SDS011;41758;51.992;5.890;2023-05-16T12:11:40;3.60;;;1.30;;
55827;SDS011;41758;51.992;5.890;2023-05-16T12:14:08;4.50;;;1.80;;
55827;SDS011;41758;51.992;5.890;2023-05-16T12:16:39;3.78;;;1.63;;
55827;SDS011;41758;51.992;5.890;2023-05-16T12:19:08;5.85;;;1.73;;
55827;SDS011;41758;51.992;5.890;2023-05-16T12:21:34;5.22;;;1.60;;
55827;SDS011;41758;51.992;5.890;2023-05-16T12:24:00;5.35;;;1.75;;
55827;SDS011;41758;51.992;5.890;2023-05-16T12:26:27;7.82;;;1.95;;
55827;SDS011;41758;51.992;5.890;2023-05-16T12:29:00;4.43;;;1.70;;
55827;SDS011;41758;51.992;5.890;2023-05-16T12:31:29;5.07;;;1.63;;
55827;SDS011;41758;51.992;5.890;2023-05-16T12:34:01;5.25;;;1.75;;
55827;SDS011;41758;51.992;5.890;2023-05-16T12:36:33;5.43;;;1.60;;
55827;SDS011;41758;51.992;5.890;2023-05-16T12:39:02;5.18;;;1.60;;
55827;SDS011;41758;51.992;5.890;2023-05-16T12:41:28;4.22;;;1.60;;
55827;SDS011;41758;51.992;5.890;2023-05-16T12:44:14;5.43;;;1.88;;
55827;SDS011;41758;51.992;5.890;2023-05-16T12:46:45;4.60;;;1.63;;
55827;SDS011;41758;51.992;5.890;2023-05-16T12:49:13;5.82;;;1.50;;
55827;SDS011;41758;51.992;5.890;2023-05-16T12:51:39;4.47;;;1.55;;
55827;SDS011;41758;51.992;5.890;2023-05-16T12:54:13;5.25;;;1.50;;
55827;SDS011;41758;51.992;5.890;2023-05-16T12:56:39;4.88;;;1.60;;
55827;SDS011;41758;51.992;5.890;2023-05-16T12:59:06;4.53;;;1.58;;
55827;SDS011;41758;51.992;5.890;2023-05-16T13:01:35;5.40;;;1.50;;
55827;SDS011;41758;51.992;5.890;2023-05-16T13:04:02;3.67;;;1.30;;
55827;SDS011;41758;51.992;5.890;2023-05-16T13:06:28;4.38;;;1.42;;
55827;SDS011;41758;51.992;5.890;2023-05-16T13:08:55;4.40;;;1.40;;
55827;SDS011;41758;51.992;5.890;2023-05-16T13:11:21;4.53;;;1.70;;
55827;SDS011;41758;51.992;5.890;2023-05-16T13:13:46;4.72;;;1.50;;
55827;SDS011;41758;51.992;5.890;2023-05-16T13:16:12;5.85;;;1.63;;
55827;SDS011;41758;51.992;5.890;2023-05-16T13:18:38;4.60;;;1.52;;
55827;SDS011;41758;51.992;5.890;2023-05-16T13:21:04;5.18;;;1.30;;
55827;SDS011;41758;51.992;5.890;2023-05-16T13:23:29;6.10;;;1.60;;
55827;SDS011;41758;51.992;5.890;2023-05-16T13:25:57;4.85;;;1.50;;
55827;SDS011;41758;51.992;5.890;2023-05-16T13:28:23;3.92;;;1.40;;
55827;SDS011;41758;51.992;5.890;2023-05-16T13:30:49;4.38;;;1.50;;
55827;SDS011;41758;51.992;5.890;2023-05-16T13:33:15;3.25;;;1.20;;
55827;SDS011;41758;51.992;5.890;2023-05-16T13:35:42;2.38;;;1.25;;
55827;SDS011;41758;51.992;5.890;2023-05-16T13:38:08;5.07;;;1.40;;
55827;SDS011;41758;51.992;5.890;2023-05-16T13:40:34;4.10;;;1.50;;
55827;SDS011;41758;51.992;5.890;2023-05-16T13:43:00;6.43;;;1.67;;
55827;SDS011;41758;51.992;5.890;2023-05-16T13:45:26;4.03;;;1.77;;
55827;SDS011;41758;51.992;5.890;2023-05-16T13:47:52;4.97;;;1.80;;
55827;SDS011;41758;51.992;5.890;2023-05-16T13:50:18;4.70;;;1.85;;
55827;SDS011;41758;51.992;5.890;2023-05-16T13:52:44;4.88;;;1.52;;
55827;SDS011;41758;51.992;5.890;2023-05-16T13:55:11;6.13;;;1.80;;
55827;SDS011;41758;51.992;5.890;2023-05-16T13:57:37;5.43;;;1.73;;
55827;SDS011;41758;51.992;5.890;2023-05-16T14:00:03;5.60;;;1.90;;
55827;SDS011;41758;51.992;5.890;2023-05-16T14:02:39;5.43;;;1.90;;
55827;SDS011;41758;51.992;5.890;2023-05-16T14:05:06;5.60;;;1.70;;
55827;SDS011;41758;51.992;5.890;2023-05-16T14:07:32;5.13;;;1.92;;
55827;SDS011;41758;51.992;5.890;2023-05-16T14:09:58;7.60;;;2.20;;
55827;SDS011;41758;51.992;5.890;2023-05-16T14:12:24;6.88;;;1.90;;
55827;SDS011;41758;51.992;5.890;2023-05-16T14:14:49;5.78;;;2.00;;
55827;SDS011;41758;51.992;5.890;2023-05-16T14:17:15;7.43;;;2.15;;
55827;SDS011;41758;51.992;5.890;2023-05-16T14:19:41;6.18;;;2.28;;
55827;SDS011;41758;51.992;5.890;2023-05-16T14:22:06;6.25;;;2.03;;
55827;SDS011;41758;51.992;5.890;2023-05-16T14:24:32;5.45;;;2.10;;
55827;SDS011;41758;51.992;5.890;2023-05-16T14:26:58;5.63;;;2.10;;
55827;SDS011;41758;51.992;5.890;2023-05-16T14:29:24;7.97;;;2.55;;
55827;SDS011;41758;51.992;5.890;2023-05-16T14:31:50;4.63;;;1.80;;
55827;SDS011;41758;51.992;5.890;2023-05-16T14:34:16;5.95;;;1.95;;
55827;SDS011;41758;51.992;5.890;2023-05-16T14:36:42;5.25;;;1.63;;
55827;SDS011;41758;51.992;5.890;2023-05-16T14:39:08;4.85;;;1.60;;
55827;SDS011;41758;51.992;5.890;2023-05-16T14:41:34;5.32;;;1.60;;
55827;SDS011;41758;51.992;5.890;2023-05-16T14:44:00;5.78;;;1.63;;
55827;SDS011;41758;51.992;5.890;2023-05-16T14:46:25;3.75;;;1.30;;
55827;SDS011;41758;51.992;5.890;2023-05-16T14:48:51;3.22;;;1.40;;
55827;SDS011;41758;51.992;5.890;2023-05-16T14:51:17;4.47;;;1.30;;
55827;SDS011;41758;51.992;5.890;2023-05-16T14:53:43;4.20;;;1.50;;
55827;SDS011;41758;51.992;5.890;2023-05-16T14:56:08;4.45;;;1.60;;
55827;SDS011;41758;51.992;5.890;2023-05-16T14:58:34;5.40;;;1.65;;
55827;SDS011;41758;51.992;5.890;2023-05-16T15:01:00;4.45;;;1.50;;
55827;SDS011;41758;51.992;5.890;2023-05-16T15:03:26;4.82;;;1.70;;
55827;SDS011;41758;51.992;5.890;2023-05-16T15:05:51;5.32;;;1.88;;
55827;SDS011;41758;51.992;5.890;2023-05-16T15:08:18;5.40;;;1.60;;
55827;SDS011;41758;51.992;5.890;2023-05-16T15:10:44;4.28;;;1.50;;
55827;SDS011;41758;51.992;5.890;2023-05-16T15:13:10;7.28;;;1.90;;
55827;SDS011;41758;51.992;5.890;2023-05-16T15:15:36;5.40;;;1.73;;
55827;SDS011;41758;51.992;5.890;2023-05-16T15:18:02;4.90;;;1.63;;